createdAt,value
2023-01-25T00:02:17.197Z,-1.76
2023-01-25T00:04:43.972Z,-1.70
2023-01-25T00:07:10.940Z,-1.79
2023-01-25T00:09:37.583Z,-1.74
2023-01-25T00:12:04.367Z,-1.80
2023-01-25T00:14:31.048Z,-1.77
2023-01-25T00:16:57.751Z,-1.74
2023-01-25T00:19:24.476Z,-1.73
2023-01-25T00:21:51.191Z,-1.80
2023-01-25T00:24:25.994Z,-1.84
2023-01-25T00:26:52.674Z,-1.84
2023-01-25T00:29:19.545Z,-1.81
2023-01-25T00:31:49.388Z,-1.87
2023-01-25T00:34:25.235Z,-1.80
2023-01-25T00:36:51.841Z,-1.80
2023-01-25T00:39:18.455Z,-1.88
2023-01-25T00:41:52.708Z,-1.87
2023-01-25T00:44:19.563Z,-1.78
2023-01-25T00:46:46.819Z,-1.84
2023-01-25T00:49:22.321Z,-1.83
2023-01-25T00:51:50.031Z,-1.82
2023-01-25T00:54:17.173Z,-1.81
2023-01-25T00:56:45.520Z,-1.84
2023-01-25T00:59:14.741Z,-1.79
2023-01-25T01:01:42.286Z,-1.77
2023-01-25T01:04:09.058Z,-1.77
2023-01-25T01:06:36.577Z,-1.76
2023-01-25T01:09:03.715Z,-1.81
2023-01-25T01:11:31.736Z,-1.79
2023-01-25T01:13:59.423Z,-1.78
2023-01-25T01:16:26.733Z,-1.82
2023-01-25T01:18:53.561Z,-1.87
2023-01-25T01:21:20.810Z,-1.84
2023-01-25T01:23:49.982Z,-1.87
2023-01-25T01:26:21.001Z,-1.89
2023-01-25T01:28:48.191Z,-1.87
2023-01-25T01:31:21.190Z,-1.84
2023-01-25T01:34:02.049Z,-1.86
2023-01-25T01:36:30.364Z,-1.83
2023-01-25T01:38:59.270Z,-1.82
2023-01-25T01:41:26.048Z,-1.79
2023-01-25T01:43:53.239Z,-1.83
2023-01-25T01:46:19.887Z,-1.84
2023-01-25T01:49:03.684Z,-1.87
2023-01-25T01:51:47.791Z,-1.85
2023-01-25T01:54:25.674Z,-1.87
2023-01-25T01:57:19.492Z,-1.80
2023-01-25T01:59:54.834Z,-1.81
2023-01-25T02:02:24.098Z,-1.83
2023-01-25T02:04:51.044Z,-1.81
2023-01-25T02:07:25.630Z,-1.81
2023-01-25T02:09:52.416Z,-1.83
2023-01-25T02:12:21.201Z,-1.79
2023-01-25T02:14:52.398Z,-1.77
2023-01-25T02:17:24.869Z,-1.77
2023-01-25T02:20:01.087Z,-1.81
2023-01-25T02:22:36.641Z,-1.77
2023-01-25T02:25:13.558Z,-1.73
2023-01-25T02:27:54.865Z,-1.74
2023-01-25T02:30:22.005Z,-1.77
2023-01-25T02:32:50.879Z,-1.75
2023-01-25T02:35:39.361Z,-1.73
2023-01-25T02:38:06.761Z,-1.65
2023-01-25T02:40:38.648Z,-1.71
2023-01-25T02:43:05.302Z,-1.62
2023-01-25T02:45:32.363Z,-1.64
2023-01-25T02:47:58.980Z,-1.62
2023-01-25T02:50:25.683Z,-1.62
2023-01-25T02:52:52.367Z,-1.60
2023-01-25T02:55:26.662Z,-1.70
2023-01-25T02:57:53.437Z,-1.59
2023-01-25T03:00:20.842Z,-1.73
2023-01-25T03:02:47.734Z,-1.74
2023-01-25T03:05:16.822Z,-1.66
2023-01-25T03:07:43.493Z,-1.59
2023-01-25T03:10:10.734Z,-1.58
2023-01-25T03:12:37.507Z,-1.55
2023-01-25T03:15:10.202Z,-1.72
2023-01-25T03:17:37.024Z,-1.81
2023-01-25T03:20:03.932Z,-1.73
2023-01-25T03:22:32.483Z,-1.71
2023-01-25T03:24:59.791Z,-1.76
2023-01-25T03:27:26.677Z,-1.74
2023-01-25T03:30:01.373Z,-1.71
2023-01-25T03:32:31.771Z,-1.60
2023-01-25T03:35:06.720Z,-1.64
2023-01-25T03:37:34.423Z,-1.71
2023-01-25T03:40:01.257Z,-1.69
2023-01-25T03:42:28.015Z,-1.66
2023-01-25T03:44:57.356Z,-1.69
2023-01-25T03:47:24.018Z,-1.67
2023-01-25T03:49:51.511Z,-1.70
2023-01-25T03:52:19.093Z,-1.72
2023-01-25T03:54:46.879Z,-1.65
2023-01-25T03:57:13.946Z,-1.66
2023-01-25T04:00:14.120Z,-1.61
2023-01-25T04:02:47.514Z,-1.67
2023-01-25T04:05:18.105Z,-1.67
2023-01-25T04:07:45.129Z,-1.56
2023-01-25T04:10:12.973Z,-1.65
2023-01-25T04:12:43.676Z,-1.65
2023-01-25T04:15:10.950Z,-1.69
2023-01-25T04:17:39.170Z,-1.61
2023-01-25T04:20:20.022Z,-1.67
2023-01-25T04:22:46.688Z,-1.67
2023-01-25T04:25:15.445Z,-1.67
2023-01-25T04:27:47.697Z,-1.65
2023-01-25T04:30:16.269Z,-1.68
2023-01-25T04:32:44.811Z,-1.65
2023-01-25T04:35:28.535Z,-1.51
2023-01-25T04:37:56.210Z,-1.58
2023-01-25T04:40:25.550Z,-1.54
2023-01-25T04:42:52.236Z,-1.59
2023-01-25T04:45:19.301Z,-1.66
2023-01-25T04:47:46.015Z,-1.65
2023-01-25T04:50:12.738Z,-1.55
2023-01-25T04:52:39.430Z,-1.61
2023-01-25T04:55:09.267Z,-1.59
2023-01-25T04:57:40.881Z,-1.56
2023-01-25T05:00:09.808Z,-1.56
2023-01-25T05:02:40.815Z,-1.56
2023-01-25T05:05:08.499Z,-1.62
2023-01-25T05:07:35.497Z,-1.61
2023-01-25T05:10:03.575Z,-1.62
2023-01-25T05:12:30.528Z,-1.58
2023-01-25T05:15:02.002Z,-1.59
2023-01-25T05:17:28.884Z,-1.61
2023-01-25T05:19:55.627Z,-1.42
2023-01-25T05:22:23.388Z,-1.38
2023-01-25T05:24:52.689Z,-1.47
2023-01-25T05:27:20.616Z,-1.58
2023-01-25T05:29:53.028Z,-1.55
2023-01-25T05:32:23.461Z,-1.59
2023-01-25T05:34:50.375Z,-1.55
2023-01-25T05:37:19.152Z,-1.53
2023-01-25T05:39:47.711Z,-1.48
2023-01-25T05:42:19.306Z,-1.37
2023-01-25T05:44:52.025Z,-1.36
2023-01-25T05:47:19.537Z,-1.45
2023-01-25T05:49:46.620Z,-1.54
2023-01-25T05:52:27.556Z,-1.53
2023-01-25T05:54:56.694Z,-1.44
2023-01-25T05:57:24.586Z,-1.54
2023-01-25T05:59:53.926Z,-1.52
2023-01-25T06:02:20.761Z,-1.55
2023-01-25T06:04:48.388Z,-1.53
2023-01-25T06:07:15.502Z,-1.45
2023-01-25T06:09:42.701Z,-1.32
2023-01-25T06:12:10.802Z,-1.43
2023-01-25T06:14:37.452Z,-1.49
2023-01-25T06:17:04.288Z,-1.52
2023-01-25T06:19:49.352Z,-1.51
2023-01-25T06:22:36.213Z,-1.51
2023-01-25T06:25:02.915Z,-1.48
2023-01-25T06:27:29.740Z,-1.44
2023-01-25T06:29:56.453Z,-1.40
2023-01-25T06:32:25.962Z,-1.40
2023-01-25T06:34:53.222Z,-1.39
2023-01-25T06:37:27.134Z,-1.38
2023-01-25T06:39:53.912Z,-1.33
2023-01-25T06:42:20.560Z,-1.38
2023-01-25T06:44:47.367Z,-1.43
2023-01-25T06:47:14.097Z,-1.45
2023-01-25T06:49:48.206Z,-1.41
2023-01-25T06:52:14.841Z,-1.42
2023-01-25T06:54:41.479Z,-1.42
2023-01-25T06:57:11.840Z,-1.41
2023-01-25T06:59:38.535Z,-1.35
2023-01-25T07:02:07.442Z,-1.43
2023-01-25T07:04:34.389Z,-1.42
2023-01-25T07:07:01.042Z,-1.38
2023-01-25T07:09:27.726Z,-1.42
2023-01-25T07:11:54.385Z,-1.51
2023-01-25T07:14:21.041Z,-1.48
2023-01-25T07:16:47.656Z,-1.43
2023-01-25T07:19:21.478Z,-1.38
2023-01-25T07:21:51.403Z,-1.40
2023-01-25T07:24:19.856Z,-1.43
2023-01-25T07:26:47.647Z,-1.35
2023-01-25T07:29:18.865Z,-1.32
2023-01-25T07:31:47.830Z,-1.41
2023-01-25T07:34:14.542Z,-1.41
2023-01-25T07:36:41.585Z,-1.41
2023-01-25T07:39:10.412Z,-1.43
2023-01-25T07:41:37.431Z,-1.39
2023-01-25T07:44:04.476Z,-1.45
2023-01-25T07:46:49.056Z,-1.43
2023-01-25T07:49:15.843Z,-1.48
2023-01-25T07:51:42.555Z,-1.44
2023-01-25T07:54:13.903Z,-1.40
2023-01-25T07:56:43.333Z,-1.36
2023-01-25T07:59:10.441Z,-1.41
2023-01-25T08:01:37.529Z,-1.47
2023-01-25T08:04:05.498Z,-1.49
2023-01-25T08:06:35.805Z,-1.45
2023-01-25T08:09:09.699Z,-1.56
2023-01-25T08:11:36.469Z,-1.53
2023-01-25T08:14:03.284Z,-1.55
2023-01-25T08:16:34.353Z,-1.44
2023-01-25T08:19:02.089Z,-1.45
2023-01-25T08:21:32.197Z,-1.49
2023-01-25T08:24:00.641Z,-1.41
2023-01-25T08:26:33.226Z,-1.51
2023-01-25T08:29:00.044Z,-1.20
2023-01-25T08:31:31.921Z,-1.40
2023-01-25T08:33:59.020Z,-1.38
2023-01-25T08:36:28.953Z,-1.57
2023-01-25T08:38:57.941Z,-1.58
2023-01-25T08:41:25.444Z,-1.49
2023-01-25T08:43:54.058Z,-1.64
2023-01-25T08:46:22.003Z,-1.59
2023-01-25T08:48:49.021Z,-1.55
2023-01-25T08:51:17.008Z,-1.53
2023-01-25T08:53:43.642Z,-1.54
2023-01-25T08:56:15.197Z,-1.62
2023-01-25T08:58:45.762Z,-1.70
2023-01-25T09:01:14.888Z,-1.72
2023-01-25T09:03:44.580Z,-1.65
2023-01-25T09:06:12.025Z,-1.64
2023-01-25T09:08:40.112Z,-1.59
2023-01-25T09:11:12.378Z,-1.63
2023-01-25T09:13:39.059Z,-1.60
2023-01-25T09:16:08.137Z,-1.58
2023-01-25T09:18:36.768Z,-1.66
2023-01-25T09:21:13.519Z,-1.55
2023-01-25T09:23:50.954Z,-1.49
2023-01-25T09:26:24.723Z,-1.43
2023-01-25T09:28:52.679Z,-1.38
2023-01-25T09:31:22.795Z,-1.36
2023-01-25T09:34:08.715Z,-1.40
2023-01-25T09:36:36.228Z,-1.32
2023-01-25T09:39:02.959Z,-1.60
2023-01-25T09:42:14.391Z,-1.58
2023-01-25T09:44:44.968Z,-1.44
2023-01-25T09:47:27.591Z,-1.47
2023-01-25T09:50:15.713Z,-1.33
2023-01-25T09:52:57.473Z,-1.24
2023-01-25T09:55:26.170Z,-1.30
2023-01-25T09:57:54.152Z,-1.25
2023-01-25T10:00:24.551Z,-1.07
2023-01-25T10:03:45.614Z,-1.07
2023-01-25T10:06:21.764Z,-1.23
2023-01-25T10:08:53.479Z,-1.27
2023-01-25T10:11:21.847Z,-1.37
2023-01-25T10:13:48.897Z,-1.27
2023-01-25T10:16:26.381Z,-1.10
2023-01-25T10:18:56.865Z,-1.12
2023-01-25T10:21:28.197Z,-1.04
2023-01-25T10:24:06.642Z,-1.18
2023-01-25T10:26:35.839Z,-1.09
2023-01-25T10:29:13.189Z,-0.97
2023-01-25T10:31:53.304Z,-0.96
2023-01-25T10:34:20.293Z,-0.98
2023-01-25T10:36:54.825Z,-1.07
2023-01-25T10:39:21.976Z,-0.94
2023-01-25T10:41:51.808Z,-0.93
2023-01-25T10:44:27.975Z,-0.96
2023-01-25T10:47:01.854Z,-1.11
2023-01-25T10:49:42.248Z,-1.24
2023-01-25T10:52:19.123Z,-1.17
2023-01-25T10:54:46.842Z,-1.18
2023-01-25T10:57:21.424Z,-1.30
2023-01-25T10:59:52.879Z,-1.25
2023-01-25T11:02:40.268Z,-1.30
2023-01-25T11:05:18.474Z,-1.28
2023-01-25T11:07:49.005Z,-1.27
2023-01-25T11:10:27.814Z,-1.13
2023-01-25T11:13:16.660Z,-1.14
2023-01-25T11:15:45.442Z,-0.97
2023-01-25T11:18:28.627Z,-1.15
2023-01-25T11:21:18.788Z,-1.03
2023-01-25T11:24:13.216Z,-1.02
2023-01-25T11:26:40.825Z,-1.10
2023-01-25T11:29:21.883Z,-1.07
2023-01-25T11:31:51.982Z,-1.03
2023-01-25T11:34:21.326Z,-1.29
2023-01-25T11:37:06.939Z,-1.10
2023-01-25T11:39:59.220Z,-1.13
2023-01-25T11:42:31.996Z,-1.06
2023-01-25T11:45:28.436Z,-1.05
2023-01-25T11:48:02.910Z,-1.04
2023-01-25T11:50:39.375Z,-1.04
2023-01-25T11:53:21.276Z,-1.15
2023-01-25T11:56:06.853Z,-1.06
2023-01-25T11:58:39.681Z,-1.21
2023-01-25T12:01:25.068Z,-1.21
2023-01-25T12:03:51.753Z,-1.03
2023-01-25T12:06:58.683Z,-1.04
2023-01-25T12:09:28.874Z,-1.08
2023-01-25T12:12:08.696Z,-1.06
2023-01-25T12:14:44.293Z,-1.01
2023-01-25T12:17:52.409Z,-1.10
2023-01-25T12:20:40.457Z,-1.09
2023-01-25T12:23:19.203Z,-1.24
2023-01-25T12:26:00.985Z,-1.13
2023-01-25T12:28:32.644Z,-1.00
2023-01-25T12:31:10.938Z,-1.17
2023-01-25T12:33:45.036Z,-1.27
2023-01-25T12:36:24.880Z,-1.07
2023-01-25T12:39:03.895Z,-1.06
2023-01-25T12:41:42.064Z,-0.88
2023-01-25T12:44:11.719Z,-0.89
2023-01-25T12:46:48.370Z,-1.15
2023-01-25T12:49:31.605Z,-1.26
2023-01-25T12:52:01.237Z,-1.24
2023-01-25T12:54:38.077Z,-1.26
2023-01-25T12:57:23.180Z,-1.40
2023-01-25T12:59:52.428Z,-1.35
2023-01-25T13:02:28.382Z,-1.28
2023-01-25T13:05:32.420Z,-1.20
2023-01-25T13:08:31.772Z,-1.40
2023-01-25T13:11:21.413Z,-1.22
2023-01-25T13:13:48.117Z,-1.27
2023-01-25T13:16:32.435Z,-1.32
2023-01-25T13:18:59.605Z,-1.30
2023-01-25T13:21:41.618Z,-1.25
2023-01-25T13:24:22.009Z,-0.96
2023-01-25T13:26:49.945Z,-1.17
2023-01-25T13:29:30.184Z,-1.18
2023-01-25T13:31:59.024Z,-1.21
2023-01-25T13:34:35.711Z,-1.14
2023-01-25T13:37:05.198Z,-1.29
2023-01-25T13:39:31.823Z,-1.30
2023-01-25T13:42:01.886Z,-1.39
2023-01-25T13:44:34.375Z,-1.34
2023-01-25T13:47:06.642Z,-1.38
2023-01-25T13:49:41.225Z,-1.33
2023-01-25T13:52:07.838Z,-1.18
2023-01-25T13:54:43.164Z,-1.23
2023-01-25T13:57:15.031Z,-1.35
2023-01-25T13:59:41.786Z,-1.48
2023-01-25T14:02:23.677Z,-1.40
2023-01-25T14:04:51.545Z,-1.50
2023-01-25T14:07:20.604Z,-1.53
2023-01-25T14:09:50.109Z,-1.50
2023-01-25T14:12:30.073Z,-1.56
2023-01-25T14:14:58.124Z,-1.64
2023-01-25T14:17:24.961Z,-1.65
2023-01-25T14:19:55.362Z,-1.65
2023-01-25T14:22:27.925Z,-1.58
2023-01-25T14:25:11.107Z,-1.61
2023-01-25T14:27:43.039Z,-1.62
2023-01-25T14:30:19.779Z,-1.80
2023-01-25T14:32:46.636Z,-1.77
2023-01-25T14:35:42.756Z,-1.68
2023-01-25T14:38:25.392Z,-1.83
2023-01-25T14:41:00.850Z,-1.79
2023-01-25T14:43:29.894Z,-2.06
2023-01-25T14:45:57.327Z,-2.06
2023-01-25T14:48:38.628Z,-1.91
2023-01-25T14:51:10.812Z,-1.92
2023-01-25T14:53:40.063Z,-2.08
2023-01-25T14:56:26.663Z,-2.20
2023-01-25T14:58:59.429Z,-2.14
2023-01-25T15:01:37.465Z,-2.29
2023-01-25T15:04:04.992Z,-2.21
2023-01-25T15:06:31.686Z,-2.28
2023-01-25T15:08:58.389Z,-2.33
2023-01-25T15:11:35.520Z,-2.17
2023-01-25T15:14:02.966Z,-2.22
2023-01-25T15:16:33.778Z,-2.25
2023-01-25T15:19:00.634Z,-2.08
2023-01-25T15:21:33.994Z,-2.25
2023-01-25T15:24:06.553Z,-2.44
2023-01-25T15:26:34.828Z,-2.36
2023-01-25T15:29:27.087Z,-2.27
2023-01-25T15:31:55.730Z,-2.38
2023-01-25T15:34:26.283Z,-2.49
2023-01-25T15:36:55.473Z,-2.64
2023-01-25T15:39:27.004Z,-2.62
2023-01-25T15:41:53.960Z,-2.62
2023-01-25T15:44:23.875Z,-2.76
2023-01-25T15:46:53.991Z,-2.81
2023-01-25T15:49:26.977Z,-2.75
2023-01-25T15:51:54.728Z,-2.80
2023-01-25T15:54:24.603Z,-2.76
2023-01-25T15:56:55.181Z,-2.74
2023-01-25T15:59:22.331Z,-2.77
2023-01-25T16:01:51.183Z,-2.76
2023-01-25T16:04:20.147Z,-2.82
2023-01-25T16:06:51.635Z,-2.72
2023-01-25T16:09:31.306Z,-2.79
2023-01-25T16:12:00.220Z,-2.74
2023-01-25T16:14:30.398Z,-2.72
2023-01-25T16:17:06.237Z,-2.94
2023-01-25T16:19:33.699Z,-2.86
2023-01-25T16:22:03.160Z,-2.82
2023-01-25T16:24:29.851Z,-2.87
2023-01-25T16:26:58.207Z,-2.88
2023-01-25T16:29:25.644Z,-2.94
2023-01-25T16:32:01.558Z,-2.95
2023-01-25T16:34:28.392Z,-2.95
2023-01-25T16:36:55.198Z,-2.91
2023-01-25T16:39:28.140Z,-2.88
2023-01-25T16:41:56.002Z,-2.86
2023-01-25T16:44:22.716Z,-2.82
2023-01-25T16:46:59.405Z,-2.87
2023-01-25T16:49:27.261Z,-2.82
2023-01-25T16:51:54.699Z,-2.84
2023-01-25T16:54:33.874Z,-2.87
2023-01-25T16:57:08.626Z,-2.87
2023-01-25T16:59:45.673Z,-2.70
2023-01-25T17:02:13.028Z,-2.79
2023-01-25T17:04:39.722Z,-2.85
2023-01-25T17:07:10.582Z,-2.86
2023-01-25T17:09:37.976Z,-2.84
2023-01-25T17:12:04.860Z,-2.92
2023-01-25T17:14:31.558Z,-2.99
2023-01-25T17:16:58.307Z,-3.14
2023-01-25T17:19:25.123Z,-3.09
2023-01-25T17:21:51.769Z,-2.96
2023-01-25T17:24:21.630Z,-3.08
2023-01-25T17:26:48.710Z,-3.13
2023-01-25T17:29:15.336Z,-2.97
2023-01-25T17:31:42.303Z,-3.09
2023-01-25T17:34:13.225Z,-3.09
2023-01-25T17:36:40.226Z,-3.32
2023-01-25T17:39:07.426Z,-3.23
2023-01-25T17:41:34.587Z,-3.27
2023-01-25T17:44:02.221Z,-3.13
2023-01-25T17:46:35.052Z,-3.24
2023-01-25T17:49:03.135Z,-3.09
2023-01-25T17:51:31.452Z,-3.11
2023-01-25T17:53:58.422Z,-3.20
2023-01-25T17:56:25.703Z,-3.29
2023-01-25T17:58:52.780Z,-3.11
2023-01-25T18:01:24.934Z,-3.27
2023-01-25T18:03:53.274Z,-3.41
2023-01-25T18:06:22.215Z,-3.43
2023-01-25T18:08:50.011Z,-3.41
2023-01-25T18:11:19.011Z,-3.43
2023-01-25T18:13:50.577Z,-3.45
2023-01-25T18:16:18.574Z,-3.36
2023-01-25T18:18:45.979Z,-3.40
2023-01-25T18:21:15.939Z,-3.44
2023-01-25T18:23:46.670Z,-3.34
2023-01-25T18:26:18.434Z,-3.28
2023-01-25T18:28:48.100Z,-3.37
2023-01-25T18:31:18.740Z,-3.39
2023-01-25T18:33:45.524Z,-3.39
2023-01-25T18:36:21.243Z,-3.38
2023-01-25T18:38:48.230Z,-3.30
2023-01-25T18:41:14.830Z,-3.43
2023-01-25T18:43:41.579Z,-3.49
2023-01-25T18:46:08.957Z,-3.44
2023-01-25T18:48:36.305Z,-3.47
2023-01-25T18:51:06.351Z,-3.52
2023-01-25T18:53:34.611Z,-3.55
2023-01-25T18:56:07.929Z,-3.58
2023-01-25T18:58:36.281Z,-3.59
2023-01-25T19:01:20.529Z,-3.67
2023-01-25T19:03:49.072Z,-3.64
2023-01-25T19:06:16.458Z,-3.71
2023-01-25T19:08:44.599Z,-3.67
2023-01-25T19:11:13.623Z,-3.43
2023-01-25T19:13:41.381Z,-3.55
2023-01-25T19:16:11.457Z,-3.51
2023-01-25T19:18:57.812Z,-3.58
2023-01-25T19:21:26.196Z,-3.61
2023-01-25T19:23:55.995Z,-3.63
2023-01-25T19:26:24.553Z,-3.70
2023-01-25T19:28:57.450Z,-3.66
2023-01-25T19:31:26.266Z,-3.62
2023-01-25T19:33:58.314Z,-3.53
2023-01-25T19:36:28.146Z,-3.64
2023-01-25T19:38:55.274Z,-3.64
2023-01-25T19:41:24.139Z,-3.57
2023-01-25T19:44:11.573Z,-3.46
2023-01-25T19:46:39.661Z,-3.63
2023-01-25T19:49:11.057Z,-3.59
2023-01-25T19:51:41.517Z,-3.59
2023-01-25T19:54:15.828Z,-3.58
2023-01-25T19:56:45.105Z,-3.49
2023-01-25T19:59:14.620Z,-3.71
2023-01-25T20:01:44.078Z,-3.78
2023-01-25T20:04:16.939Z,-3.88
2023-01-25T20:06:43.771Z,-3.74
2023-01-25T20:09:14.693Z,-3.60
2023-01-25T20:11:41.813Z,-3.60
2023-01-25T20:14:09.747Z,-3.69
2023-01-25T20:16:36.510Z,-3.69
2023-01-25T20:19:03.939Z,-3.80
2023-01-25T20:21:33.913Z,-3.74
2023-01-25T20:24:04.557Z,-3.56
2023-01-25T20:26:33.952Z,-3.58
2023-01-25T20:29:02.065Z,-3.58
2023-01-25T20:31:33.922Z,-3.56
2023-01-25T20:34:05.964Z,-3.62
2023-01-25T20:36:36.309Z,-3.52
2023-01-25T20:39:04.101Z,-3.55
2023-01-25T20:41:30.994Z,-3.58
2023-01-25T20:44:07.203Z,-3.58
2023-01-25T20:46:37.585Z,-3.62
2023-01-25T20:49:15.100Z,-3.64
2023-01-25T20:51:45.197Z,-3.54
2023-01-25T20:54:12.149Z,-3.57
2023-01-25T20:56:39.244Z,-3.60
2023-01-25T20:59:06.233Z,-3.70
2023-01-25T21:01:47.162Z,-3.64
2023-01-25T21:07:03.056Z,-3.73
2023-01-25T21:09:30.075Z,-3.70
2023-01-25T21:11:57.035Z,-3.62
2023-01-25T21:14:23.914Z,-3.75
2023-01-25T21:16:50.906Z,-3.66
2023-01-25T21:19:17.872Z,-3.63
2023-01-25T21:21:44.845Z,-3.70
2023-01-25T21:24:12.069Z,-3.74
2023-01-25T21:26:39.056Z,-3.76
2023-01-25T21:29:06.800Z,-3.75
2023-01-25T21:31:43.061Z,-3.76
2023-01-25T21:34:10.609Z,-3.72
2023-01-25T21:36:37.592Z,-3.68
2023-01-25T21:39:04.281Z,-3.64
2023-01-25T21:41:33.652Z,-3.62
2023-01-25T21:44:19.592Z,-3.44
2023-01-25T21:47:12.435Z,-3.66
2023-01-25T21:49:51.569Z,-3.67
2023-01-25T21:52:18.327Z,-3.62
2023-01-25T21:54:45.114Z,-3.67
2023-01-25T21:57:11.778Z,-3.72
2023-01-25T21:59:40.916Z,-3.67
2023-01-25T22:02:11.727Z,-3.61
2023-01-25T22:04:38.637Z,-3.60
2023-01-25T22:07:07.103Z,-3.67
2023-01-25T22:09:33.738Z,-3.70
2023-01-25T22:12:01.889Z,-3.67
2023-01-25T22:14:28.834Z,-3.78
2023-01-25T22:16:58.477Z,-3.77
2023-01-25T22:19:25.303Z,-3.81
2023-01-25T22:21:52.191Z,-3.76
2023-01-25T22:24:19.311Z,-3.74
2023-01-25T22:26:49.055Z,-3.73
2023-01-25T22:29:16.152Z,-3.72
2023-01-25T22:31:43.212Z,-3.72
2023-01-25T22:34:10.501Z,-3.64
2023-01-25T22:36:38.103Z,-3.63
2023-01-25T22:39:04.835Z,-3.69
2023-01-25T22:41:32.530Z,-3.62
2023-01-25T22:43:59.206Z,-3.63
2023-01-25T22:46:27.909Z,-3.63
2023-01-25T22:48:55.301Z,-3.66
2023-01-25T22:51:25.516Z,-3.71
2023-01-25T22:53:53.098Z,-3.82
2023-01-25T22:56:25.499Z,-3.75
2023-01-25T22:58:52.682Z,-3.71
2023-01-25T23:01:21.829Z,-3.73
2023-01-25T23:03:49.237Z,-3.72
2023-01-25T23:06:18.903Z,-3.74
2023-01-25T23:08:46.412Z,-3.71
2023-01-25T23:11:15.814Z,-3.79
2023-01-25T23:14:02.836Z,-3.61
2023-01-25T23:16:29.940Z,-3.86
2023-01-25T23:18:56.588Z,-3.83
2023-01-25T23:21:28.121Z,-3.79
2023-01-25T23:23:55.925Z,-3.83
2023-01-25T23:26:23.298Z,-3.82
2023-01-25T23:28:51.205Z,-3.86
2023-01-25T23:31:18.362Z,-3.86
2023-01-25T23:33:49.920Z,-3.76
2023-01-25T23:36:19.412Z,-3.74
2023-01-25T23:38:46.706Z,-3.69
2023-01-25T23:41:14.114Z,-3.62
2023-01-25T23:43:41.262Z,-3.64
2023-01-25T23:46:08.258Z,-3.58
2023-01-25T23:48:35.507Z,-3.65
2023-01-25T23:51:02.640Z,-3.73
2023-01-25T23:53:30.889Z,-3.67
2023-01-25T23:55:59.737Z,-3.66
2023-01-25T23:58:26.856Z,-3.69
